ORMM/BSR METAR and TAF weather

Enter ICAO airport designator
Station Type Date Time Source
ORMM METAR 2019/04/23 00:00 UTC NOAA

ORMM 230000Z 00000KT CAVO 16/09 Q1015 NOSIG


Station Type Date Time Source
ORMM Decoded METAR 2019/04/23 00:00 UTC NOAA

Station name not available
Apr 22, 2019 - 08:00 PM EDT / 2019.04.23 0000 UTC
Wind: Calm:0
Temperature: 60 F (16 C)
Dew Point: 48 F (9 C)
Relative Humidity: 63%
Pressure (altimeter): 29.97 in. Hg (1015 hPa)
ob: ORMM 230000Z 00000KT CAVO 16/09 Q1015 NOSIG
cycle: 0

Station Type Date Time Source
ORMM TAF 2019/04/22 18:57 UTC NOAA

TAF ORMM 221600Z 2218/2318 33014KT CAVOK
TEMPO 2303/2307 VRB03KT
BECMG 2312/2314 29016KT

Example: see airport list